sensor_id;sensor_type;location;lat;lon;timestamp;P1;durP1;ratioP1;P2;durP2;ratioP2
43297;SDS011;28892;55.640;37.532;2023-05-19T00:02:39;4.18;;;3.88;;
43297;SDS011;28892;55.640;37.532;2023-05-19T00:05:41;4.68;;;3.25;;
43297;SDS011;28892;55.640;37.532;2023-05-19T00:14:51;3.38;;;3.05;;
43297;SDS011;28892;55.640;37.532;2023-05-19T00:17:17;4.18;;;3.05;;
43297;SDS011;28892;55.640;37.532;2023-05-19T00:19:44;3.50;;;3.20;;
43297;SDS011;28892;55.640;37.532;2023-05-19T00:22:18;4.63;;;2.97;;
43297;SDS011;28892;55.640;37.532;2023-05-19T00:28:55;2.97;;;2.78;;
43297;SDS011;28892;55.640;37.532;2023-05-19T00:31:22;5.03;;;3.10;;
43297;SDS011;28892;55.640;37.532;2023-05-19T00:33:52;3.38;;;3.08;;
43297;SDS011;28892;55.640;37.532;2023-05-19T00:36:28;4.05;;;2.90;;
43297;SDS011;28892;55.640;37.532;2023-05-19T00:38:56;3.40;;;3.10;;
43297;SDS011;28892;55.640;37.532;2023-05-19T00:41:23;3.58;;;3.28;;
43297;SDS011;28892;55.640;37.532;2023-05-19T00:43:49;4.50;;;3.10;;
43297;SDS011;28892;55.640;37.532;2023-05-19T00:46:15;3.70;;;3.40;;
43297;SDS011;28892;55.640;37.532;2023-05-19T00:48:41;2.90;;;2.70;;
43297;SDS011;28892;55.640;37.532;2023-05-19T00:51:09;2.92;;;2.70;;
43297;SDS011;28892;55.640;37.532;2023-05-19T00:53:39;4.15;;;2.70;;
43297;SDS011;28892;55.640;37.532;2023-05-19T00:56:14;5.03;;;2.97;;
43297;SDS011;28892;55.640;37.532;2023-05-19T00:58:41;3.60;;;2.50;;
43297;SDS011;28892;55.640;37.532;2023-05-19T01:01:08;2.97;;;2.47;;
43297;SDS011;28892;55.640;37.532;2023-05-19T01:03:38;2.78;;;2.13;;
43297;SDS011;28892;55.640;37.532;2023-05-19T01:06:05;2.25;;;2.05;;
43297;SDS011;28892;55.640;37.532;2023-05-19T01:08:33;3.17;;;1.90;;
43297;SDS011;28892;55.640;37.532;2023-05-19T01:11:03;3.20;;;2.40;;
43297;SDS011;28892;55.640;37.532;2023-05-19T01:17:00;2.58;;;1.90;;
43297;SDS011;28892;55.640;37.532;2023-05-19T01:19:48;2.78;;;1.83;;
43297;SDS011;28892;55.640;37.532;2023-05-19T01:31:07;2.10;;;1.90;;
43297;SDS011;28892;55.640;37.532;2023-05-19T01:33:38;1.95;;;1.73;;
43297;SDS011;28892;55.640;37.532;2023-05-19T01:36:07;2.08;;;1.88;;
43297;SDS011;28892;55.640;37.532;2023-05-19T01:38:34;2.25;;;1.60;;
43297;SDS011;28892;55.640;37.532;2023-05-19T01:41:26;2.47;;;1.50;;
43297;SDS011;28892;55.640;37.532;2023-05-19T01:43:57;1.95;;;1.75;;
43297;SDS011;28892;55.640;37.532;2023-05-19T01:46:23;2.55;;;1.92;;
43297;SDS011;28892;55.640;37.532;2023-05-19T01:48:52;3.15;;;1.75;;
43297;SDS011;28892;55.640;37.532;2023-05-19T01:51:19;2.65;;;1.67;;
43297;SDS011;28892;55.640;37.532;2023-05-19T01:53:54;2.22;;;2.03;;
43297;SDS011;28892;55.640;37.532;2023-05-19T01:56:25;1.92;;;1.73;;
43297;SDS011;28892;55.640;37.532;2023-05-19T01:59:03;2.33;;;2.00;;
43297;SDS011;28892;55.640;37.532;2023-05-19T02:01:46;3.22;;;1.90;;
43297;SDS011;28892;55.640;37.532;2023-05-19T02:07:00;1.50;;;1.40;;
43297;SDS011;28892;55.640;37.532;2023-05-19T02:12:35;1.60;;;1.50;;
43297;SDS011;28892;55.640;37.532;2023-05-19T02:15:20;3.55;;;1.42;;
43297;SDS011;28892;55.640;37.532;2023-05-19T02:17:51;2.47;;;1.70;;
43297;SDS011;28892;55.640;37.532;2023-05-19T02:20:44;2.08;;;1.88;;
43297;SDS011;28892;55.640;37.532;2023-05-19T02:23:10;3.33;;;2.20;;
43297;SDS011;28892;55.640;37.532;2023-05-19T02:25:36;4.82;;;2.08;;
43297;SDS011;28892;55.640;37.532;2023-05-19T02:28:05;2.45;;;2.25;;
43297;SDS011;28892;55.640;37.532;2023-05-19T02:30:56;3.92;;;2.22;;
43297;SDS011;28892;55.640;37.532;2023-05-19T02:33:22;2.50;;;2.30;;
43297;SDS011;28892;55.640;37.532;2023-05-19T02:35:56;3.17;;;2.80;;
43297;SDS011;28892;55.640;37.532;2023-05-19T02:38:22;4.15;;;2.40;;
43297;SDS011;28892;55.640;37.532;2023-05-19T02:40:50;3.35;;;2.65;;
43297;SDS011;28892;55.640;37.532;2023-05-19T02:43:19;3.20;;;2.50;;
43297;SDS011;28892;55.640;37.532;2023-05-19T02:45:45;5.07;;;2.67;;
43297;SDS011;28892;55.640;37.532;2023-05-19T02:48:16;3.13;;;2.55;;
43297;SDS011;28892;55.640;37.532;2023-05-19T02:50:52;3.28;;;2.42;;
43297;SDS011;28892;55.640;37.532;2023-05-19T02:53:36;3.75;;;2.45;;
43297;SDS011;28892;55.640;37.532;2023-05-19T02:56:06;4.60;;;2.58;;
43297;SDS011;28892;55.640;37.532;2023-05-19T02:59:12;4.30;;;2.42;;
43297;SDS011;28892;55.640;37.532;2023-05-19T03:01:41;4.63;;;2.63;;
43297;SDS011;28892;55.640;37.532;2023-05-19T03:07:46;3.88;;;2.72;;
43297;SDS011;28892;55.640;37.532;2023-05-19T03:10:35;3.90;;;2.47;;
43297;SDS011;28892;55.640;37.532;2023-05-19T03:16:05;4.50;;;2.50;;
43297;SDS011;28892;55.640;37.532;2023-05-19T03:19:01;5.00;;;2.80;;
43297;SDS011;28892;55.640;37.532;2023-05-19T03:22:32;3.42;;;2.38;;
43297;SDS011;28892;55.640;37.532;2023-05-19T03:25:21;3.17;;;2.50;;
43297;SDS011;28892;55.640;37.532;2023-05-19T03:28:26;3.05;;;2.67;;
43297;SDS011;28892;55.640;37.532;2023-05-19T03:30:53;4.57;;;2.88;;
43297;SDS011;28892;55.640;37.532;2023-05-19T03:36:16;5.10;;;2.90;;
43297;SDS011;28892;55.640;37.532;2023-05-19T03:38:42;3.80;;;2.67;;
43297;SDS011;28892;55.640;37.532;2023-05-19T03:41:17;2.72;;;2.50;;
43297;SDS011;28892;55.640;37.532;2023-05-19T03:43:43;3.80;;;2.80;;
43297;SDS011;28892;55.640;37.532;2023-05-19T03:46:09;4.00;;;2.63;;
43297;SDS011;28892;55.640;37.532;2023-05-19T03:48:59;3.60;;;2.67;;
43297;SDS011;28892;55.640;37.532;2023-05-19T03:52:10;3.55;;;2.65;;
43297;SDS011;28892;55.640;37.532;2023-05-19T03:55:05;4.40;;;2.92;;
43297;SDS011;28892;55.640;37.532;2023-05-19T03:57:44;4.55;;;3.00;;
43297;SDS011;28892;55.640;37.532;2023-05-19T04:00:13;4.57;;;3.47;;
43297;SDS011;28892;55.640;37.532;2023-05-19T04:02:48;3.20;;;2.90;;
43297;SDS011;28892;55.640;37.532;2023-05-19T04:05:14;3.88;;;3.00;;
43297;SDS011;28892;55.640;37.532;2023-05-19T04:07:41;4.82;;;3.17;;
43297;SDS011;28892;55.640;37.532;2023-05-19T04:10:15;5.55;;;3.47;;
43297;SDS011;28892;55.640;37.532;2023-05-19T04:12:42;5.85;;;3.67;;
43297;SDS011;28892;55.640;37.532;2023-05-19T04:15:08;4.63;;;3.33;;
43297;SDS011;28892;55.640;37.532;2023-05-19T04:23:46;4.20;;;3.47;;
43297;SDS011;28892;55.640;37.532;2023-05-19T04:26:12;3.45;;;3.13;;
43297;SDS011;28892;55.640;37.532;2023-05-19T04:29:27;4.25;;;3.50;;
43297;SDS011;28892;55.640;37.532;2023-05-19T04:38:31;5.60;;;3.47;;
43297;SDS011;28892;55.640;37.532;2023-05-19T04:44:42;5.65;;;4.07;;
43297;SDS011;28892;55.640;37.532;2023-05-19T04:47:11;4.40;;;3.53;;
43297;SDS011;28892;55.640;37.532;2023-05-19T04:50:10;10.02;;;3.80;;
43297;SDS011;28892;55.640;37.532;2023-05-19T05:00:31;6.30;;;3.50;;
43297;SDS011;28892;55.640;37.532;2023-05-19T05:18:04;6.57;;;4.57;;
43297;SDS011;28892;55.640;37.532;2023-05-19T05:20:32;4.95;;;4.40;;
43297;SDS011;28892;55.640;37.532;2023-05-19T05:23:12;5.80;;;4.40;;
43297;SDS011;28892;55.640;37.532;2023-05-19T05:26:27;5.15;;;4.43;;
43297;SDS011;28892;55.640;37.532;2023-05-19T05:28:57;6.60;;;4.72;;
43297;SDS011;28892;55.640;37.532;2023-05-19T05:31:27;5.38;;;4.18;;
43297;SDS011;28892;55.640;37.532;2023-05-19T05:33:59;6.43;;;4.80;;
43297;SDS011;28892;55.640;37.532;2023-05-19T05:36:34;8.05;;;4.75;;
43297;SDS011;28892;55.640;37.532;2023-05-19T05:39:06;6.22;;;4.80;;
43297;SDS011;28892;55.640;37.532;2023-05-19T05:45:45;7.38;;;5.22;;
43297;SDS011;28892;55.640;37.532;2023-05-19T05:51:15;6.30;;;5.45;;
43297;SDS011;28892;55.640;37.532;2023-05-19T05:56:56;7.82;;;5.40;;
43297;SDS011;28892;55.640;37.532;2023-05-19T05:59:23;7.07;;;5.38;;
43297;SDS011;28892;55.640;37.532;2023-05-19T06:06:34;6.55;;;5.80;;
43297;SDS011;28892;55.640;37.532;2023-05-19T06:12:46;17.55;;;8.20;;
43297;SDS011;28892;55.640;37.532;2023-05-19T06:19:11;7.80;;;7.00;;
43297;SDS011;28892;55.640;37.532;2023-05-19T06:22:33;9.75;;;7.72;;
43297;SDS011;28892;55.640;37.532;2023-05-19T06:25:32;9.75;;;8.30;;
43297;SDS011;28892;55.640;37.532;2023-05-19T06:28:18;9.70;;;8.00;;
43297;SDS011;28892;55.640;37.532;2023-05-19T06:31:30;7.90;;;7.10;;
43297;SDS011;28892;55.640;37.532;2023-05-19T06:34:49;9.55;;;7.65;;
43297;SDS011;28892;55.640;37.532;2023-05-19T06:37:45;12.48;;;8.13;;
43297;SDS011;28892;55.640;37.532;2023-05-19T06:43:17;8.20;;;6.53;;
43297;SDS011;28892;55.640;37.532;2023-05-19T06:46:15;9.93;;;7.70;;
43297;SDS011;28892;55.640;37.532;2023-05-19T06:53:20;8.70;;;7.32;;
43297;SDS011;28892;55.640;37.532;2023-05-19T06:55:46;11.10;;;7.45;;
43297;SDS011;28892;55.640;37.532;2023-05-19T07:16:57;8.15;;;7.28;;
43297;SDS011;28892;55.640;37.532;2023-05-19T07:19:23;10.73;;;7.75;;
43297;SDS011;28892;55.640;37.532;2023-05-19T07:22:28;9.00;;;6.97;;
43297;SDS011;28892;55.640;37.532;2023-05-19T07:30:40;11.77;;;7.70;;
43297;SDS011;28892;55.640;37.532;2023-05-19T07:33:06;9.48;;;7.88;;
43297;SDS011;28892;55.640;37.532;2023-05-19T07:35:38;12.65;;;8.35;;
43297;SDS011;28892;55.640;37.532;2023-05-19T07:38:07;9.57;;;8.60;;
43297;SDS011;28892;55.640;37.532;2023-05-19T07:40:59;10.32;;;8.02;;
43297;SDS011;28892;55.640;37.532;2023-05-19T07:43:26;10.02;;;8.38;;
43297;SDS011;28892;55.640;37.532;2023-05-19T07:46:27;9.15;;;7.30;;
43297;SDS011;28892;55.640;37.532;2023-05-19T07:48:54;8.48;;;7.35;;
43297;SDS011;28892;55.640;37.532;2023-05-19T07:55:02;9.35;;;7.70;;
43297;SDS011;28892;55.640;37.532;2023-05-19T08:00:28;10.57;;;8.50;;
43297;SDS011;28892;55.640;37.532;2023-05-19T08:03:27;9.60;;;8.52;;
43297;SDS011;28892;55.640;37.532;2023-05-19T08:06:01;10.82;;;8.52;;
43297;SDS011;28892;55.640;37.532;2023-05-19T08:09:31;9.00;;;8.10;;
43297;SDS011;28892;55.640;37.532;2023-05-19T08:12:04;10.02;;;8.95;;
43297;SDS011;28892;55.640;37.532;2023-05-19T08:14:33;10.80;;;8.57;;
43297;SDS011;28892;55.640;37.532;2023-05-19T08:20:04;10.88;;;8.60;;
43297;SDS011;28892;55.640;37.532;2023-05-19T08:22:37;11.57;;;8.70;;
43297;SDS011;28892;55.640;37.532;2023-05-19T08:25:06;8.98;;;8.05;;
43297;SDS011;28892;55.640;37.532;2023-05-19T08:27:34;8.73;;;7.28;;
43297;SDS011;28892;55.640;37.532;2023-05-19T08:30:08;11.38;;;7.00;;
43297;SDS011;28892;55.640;37.532;2023-05-19T08:35:55;11.40;;;7.30;;
43297;SDS011;28892;55.640;37.532;2023-05-19T08:38:36;11.75;;;7.53;;
43297;SDS011;28892;55.640;37.532;2023-05-19T08:44:12;9.88;;;6.53;;
43297;SDS011;28892;55.640;37.532;2023-05-19T08:50:09;9.43;;;6.20;;
43297;SDS011;28892;55.640;37.532;2023-05-19T08:53:28;9.77;;;6.93;;
43297;SDS011;28892;55.640;37.532;2023-05-19T08:56:16;8.43;;;6.18;;
43297;SDS011;28892;55.640;37.532;2023-05-19T08:59:45;7.38;;;5.35;;
43297;SDS011;28892;55.640;37.532;2023-05-19T09:02:40;12.77;;;5.70;;
43297;SDS011;28892;55.640;37.532;2023-05-19T09:05:26;7.80;;;5.30;;
43297;SDS011;28892;55.640;37.532;2023-05-19T09:07:52;6.53;;;5.05;;
43297;SDS011;28892;55.640;37.532;2023-05-19T09:10:19;6.35;;;4.70;;
43297;SDS011;28892;55.640;37.532;2023-05-19T09:12:48;10.85;;;5.03;;
43297;SDS011;28892;55.640;37.532;2023-05-19T09:15:15;8.88;;;5.03;;
43297;SDS011;28892;55.640;37.532;2023-05-19T09:18:06;9.52;;;4.57;;
43297;SDS011;28892;55.640;37.532;2023-05-19T09:20:39;8.63;;;4.88;;
43297;SDS011;28892;55.640;37.532;2023-05-19T09:23:12;6.68;;;4.28;;
43297;SDS011;28892;55.640;37.532;2023-05-19T09:25:51;6.03;;;3.90;;
43297;SDS011;28892;55.640;37.532;2023-05-19T09:28:32;7.90;;;4.25;;
43297;SDS011;28892;55.640;37.532;2023-05-19T09:31:00;8.48;;;3.92;;
43297;SDS011;28892;55.640;37.532;2023-05-19T09:36:40;8.85;;;4.65;;
43297;SDS011;28892;55.640;37.532;2023-05-19T09:39:22;7.38;;;4.20;;
43297;SDS011;28892;55.640;37.532;2023-05-19T09:42:05;9.07;;;3.70;;
43297;SDS011;28892;55.640;37.532;2023-05-19T09:44:33;6.75;;;3.40;;
43297;SDS011;28892;55.640;37.532;2023-05-19T10:05:09;7.03;;;3.28;;
43297;SDS011;28892;55.640;37.532;2023-05-19T10:07:49;5.10;;;3.53;;
43297;SDS011;28892;55.640;37.532;2023-05-19T10:10:16;8.07;;;3.58;;
43297;SDS011;28892;55.640;37.532;2023-05-19T10:13:15;6.45;;;4.53;;
43297;SDS011;28892;55.640;37.532;2023-05-19T10:15:42;5.47;;;3.42;;
43297;SDS011;28892;55.640;37.532;2023-05-19T10:18:09;6.35;;;3.47;;
43297;SDS011;28892;55.640;37.532;2023-05-19T10:24:04;6.05;;;2.83;;
43297;SDS011;28892;55.640;37.532;2023-05-19T10:26:34;6.95;;;2.95;;
43297;SDS011;28892;55.640;37.532;2023-05-19T10:29:05;7.03;;;3.45;;
43297;SDS011;28892;55.640;37.532;2023-05-19T10:32:05;6.85;;;3.60;;
43297;SDS011;28892;55.640;37.532;2023-05-19T10:38:14;7.07;;;3.25;;
43297;SDS011;28892;55.640;37.532;2023-05-19T10:46:28;4.43;;;3.10;;
43297;SDS011;28892;55.640;37.532;2023-05-19T10:52:41;6.50;;;3.03;;
43297;SDS011;28892;55.640;37.532;2023-05-19T10:58:40;7.30;;;2.42;;
43297;SDS011;28892;55.640;37.532;2023-05-19T11:01:17;7.05;;;2.78;;
43297;SDS011;28892;55.640;37.532;2023-05-19T11:03:48;3.85;;;2.60;;
43297;SDS011;28892;55.640;37.532;2023-05-19T11:06:26;6.70;;;2.95;;
43297;SDS011;28892;55.640;37.532;2023-05-19T11:09:37;3.38;;;2.40;;
43297;SDS011;28892;55.640;37.532;2023-05-19T11:12:51;6.55;;;2.38;;
43297;SDS011;28892;55.640;37.532;2023-05-19T11:20:48;6.10;;;2.53;;
43297;SDS011;28892;55.640;37.532;2023-05-19T11:23:24;7.07;;;2.13;;
43297;SDS011;28892;55.640;37.532;2023-05-19T11:30:08;4.78;;;2.10;;
43297;SDS011;28892;55.640;37.532;2023-05-19T11:32:51;2.55;;;2.28;;
43297;SDS011;28892;55.640;37.532;2023-05-19T11:36:08;4.35;;;2.20;;
43297;SDS011;28892;55.640;37.532;2023-05-19T11:39:50;7.53;;;2.33;;
43297;SDS011;28892;55.640;37.532;2023-05-19T11:42:55;4.20;;;2.10;;
43297;SDS011;28892;55.640;37.532;2023-05-19T11:45:24;5.03;;;1.98;;
43297;SDS011;28892;55.640;37.532;2023-05-19T11:47:55;2.75;;;2.00;;
43297;SDS011;28892;55.640;37.532;2023-05-19T11:51:59;4.63;;;2.75;;
43297;SDS011;28892;55.640;37.532;2023-05-19T11:54:54;5.53;;;2.50;;
43297;SDS011;28892;55.640;37.532;2023-05-19T11:57:25;4.70;;;2.10;;
43297;SDS011;28892;55.640;37.532;2023-05-19T11:59:51;9.35;;;2.13;;
43297;SDS011;28892;55.640;37.532;2023-05-19T12:02:23;6.78;;;2.28;;
43297;SDS011;28892;55.640;37.532;2023-05-19T12:04:50;4.60;;;1.83;;
43297;SDS011;28892;55.640;37.532;2023-05-19T12:07:18;5.03;;;2.40;;
43297;SDS011;28892;55.640;37.532;2023-05-19T12:16:37;5.63;;;2.30;;
43297;SDS011;28892;55.640;37.532;2023-05-19T12:19:06;9.02;;;2.38;;
43297;SDS011;28892;55.640;37.532;2023-05-19T12:21:41;5.57;;;2.17;;
43297;SDS011;28892;55.640;37.532;2023-05-19T12:24:10;5.55;;;2.15;;
43297;SDS011;28892;55.640;37.532;2023-05-19T12:26:46;3.53;;;2.08;;
43297;SDS011;28892;55.640;37.532;2023-05-19T12:29:21;3.65;;;2.00;;
43297;SDS011;28892;55.640;37.532;2023-05-19T12:31:56;3.67;;;2.40;;
43297;SDS011;28892;55.640;37.532;2023-05-19T12:37:13;3.83;;;2.30;;
43297;SDS011;28892;55.640;37.532;2023-05-19T12:42:45;3.17;;;2.33;;
43297;SDS011;28892;55.640;37.532;2023-05-19T12:45:12;4.57;;;2.80;;
43297;SDS011;28892;55.640;37.532;2023-05-19T12:47:38;8.35;;;2.78;;
43297;SDS011;28892;55.640;37.532;2023-05-19T12:50:05;5.50;;;2.25;;
43297;SDS011;28892;55.640;37.532;2023-05-19T12:52:41;6.82;;;2.80;;
43297;SDS011;28892;55.640;37.532;2023-05-19T12:55:51;6.72;;;3.10;;
43297;SDS011;28892;55.640;37.532;2023-05-19T12:58:20;3.63;;;2.10;;
43297;SDS011;28892;55.640;37.532;2023-05-19T13:00:47;6.72;;;2.15;;
43297;SDS011;28892;55.640;37.532;2023-05-19T13:03:22;6.35;;;2.80;;
43297;SDS011;28892;55.640;37.532;2023-05-19T13:06:16;6.13;;;1.88;;
43297;SDS011;28892;55.640;37.532;2023-05-19T13:08:42;2.15;;;1.95;;
43297;SDS011;28892;55.640;37.532;2023-05-19T13:11:08;4.63;;;1.80;;
43297;SDS011;28892;55.640;37.532;2023-05-19T13:13:38;4.13;;;1.70;;
43297;SDS011;28892;55.640;37.532;2023-05-19T13:16:05;7.13;;;2.08;;
43297;SDS011;28892;55.640;37.532;2023-05-19T13:18:31;5.95;;;2.20;;
43297;SDS011;28892;55.640;37.532;2023-05-19T13:21:02;3.30;;;1.70;;
43297;SDS011;28892;55.640;37.532;2023-05-19T13:23:35;3.30;;;1.75;;
43297;SDS011;28892;55.640;37.532;2023-05-19T13:26:07;3.35;;;2.00;;
43297;SDS011;28892;55.640;37.532;2023-05-19T13:28:38;4.60;;;1.80;;
43297;SDS011;28892;55.640;37.532;2023-05-19T13:31:04;3.95;;;2.15;;
43297;SDS011;28892;55.640;37.532;2023-05-19T13:33:30;6.80;;;1.83;;
43297;SDS011;28892;55.640;37.532;2023-05-19T13:35:59;3.75;;;1.70;;
43297;SDS011;28892;55.640;37.532;2023-05-19T13:38:25;6.82;;;4.15;;
43297;SDS011;28892;55.640;37.532;2023-05-19T13:40:51;6.97;;;2.13;;
43297;SDS011;28892;55.640;37.532;2023-05-19T13:43:17;6.47;;;2.20;;
43297;SDS011;28892;55.640;37.532;2023-05-19T13:46:04;6.85;;;1.98;;
43297;SDS011;28892;55.640;37.532;2023-05-19T13:48:32;7.03;;;2.33;;
43297;SDS011;28892;55.640;37.532;2023-05-19T13:51:20;6.13;;;2.13;;
43297;SDS011;28892;55.640;37.532;2023-05-19T13:53:46;2.95;;;1.88;;
43297;SDS011;28892;55.640;37.532;2023-05-19T13:56:12;6.30;;;2.20;;
43297;SDS011;28892;55.640;37.532;2023-05-19T13:58:38;5.05;;;1.90;;
43297;SDS011;28892;55.640;37.532;2023-05-19T14:01:04;5.25;;;1.60;;
43297;SDS011;28892;55.640;37.532;2023-05-19T14:03:30;4.00;;;1.70;;
43297;SDS011;28892;55.640;37.532;2023-05-19T14:05:56;3.53;;;1.83;;
43297;SDS011;28892;55.640;37.532;2023-05-19T14:08:22;5.40;;;2.20;;
43297;SDS011;28892;55.640;37.532;2023-05-19T14:10:49;6.03;;;2.30;;
43297;SDS011;28892;55.640;37.532;2023-05-19T14:13:15;5.28;;;4.78;;
43297;SDS011;28892;55.640;37.532;2023-05-19T14:15:41;9.82;;;4.07;;
43297;SDS011;28892;55.640;37.532;2023-05-19T14:18:11;4.43;;;2.80;;
43297;SDS011;28892;55.640;37.532;2023-05-19T14:20:37;5.78;;;2.97;;
43297;SDS011;28892;55.640;37.532;2023-05-19T14:23:09;5.80;;;2.20;;
43297;SDS011;28892;55.640;37.532;2023-05-19T14:25:39;4.68;;;2.15;;
43297;SDS011;28892;55.640;37.532;2023-05-19T14:28:05;6.35;;;3.60;;
43297;SDS011;28892;55.640;37.532;2023-05-19T14:30:31;5.72;;;2.45;;
43297;SDS011;28892;55.640;37.532;2023-05-19T14:33:00;3.40;;;2.60;;
43297;SDS011;28892;55.640;37.532;2023-05-19T14:35:33;7.65;;;3.13;;
43297;SDS011;28892;55.640;37.532;2023-05-19T14:38:01;8.10;;;3.22;;
43297;SDS011;28892;55.640;37.532;2023-05-19T14:40:36;5.55;;;2.58;;
43297;SDS011;28892;55.640;37.532;2023-05-19T14:43:02;5.07;;;1.95;;
43297;SDS011;28892;55.640;37.532;2023-05-19T14:45:30;4.00;;;2.22;;
43297;SDS011;28892;55.640;37.532;2023-05-19T14:47:56;3.15;;;1.73;;
43297;SDS011;28892;55.640;37.532;2023-05-19T14:50:28;4.43;;;1.85;;
43297;SDS011;28892;55.640;37.532;2023-05-19T14:52:56;3.35;;;1.80;;
43297;SDS011;28892;55.640;37.532;2023-05-19T14:55:22;3.88;;;2.00;;
43297;SDS011;28892;55.640;37.532;2023-05-19T14:57:49;5.40;;;1.80;;
43297;SDS011;28892;55.640;37.532;2023-05-19T15:00:16;5.40;;;1.77;;
43297;SDS011;28892;55.640;37.532;2023-05-19T15:02:42;4.57;;;2.00;;
43297;SDS011;28892;55.640;37.532;2023-05-19T15:05:10;4.45;;;1.67;;
43297;SDS011;28892;55.640;37.532;2023-05-19T15:07:39;5.60;;;2.10;;
43297;SDS011;28892;55.640;37.532;2023-05-19T15:10:05;2.53;;;1.58;;
43297;SDS011;28892;55.640;37.532;2023-05-19T15:12:31;2.90;;;1.60;;
43297;SDS011;28892;55.640;37.532;2023-05-19T15:15:05;4.45;;;1.75;;
43297;SDS011;28892;55.640;37.532;2023-05-19T15:17:31;3.95;;;1.70;;
43297;SDS011;28892;55.640;37.532;2023-05-19T15:19:57;3.83;;;1.92;;
43297;SDS011;28892;55.640;37.532;2023-05-19T15:22:23;4.70;;;2.80;;
43297;SDS011;28892;55.640;37.532;2023-05-19T15:25:48;2.72;;;1.80;;
43297;SDS011;28892;55.640;37.532;2023-05-19T15:28:21;3.25;;;1.90;;
43297;SDS011;28892;55.640;37.532;2023-05-19T15:31:11;4.63;;;2.30;;
43297;SDS011;28892;55.640;37.532;2023-05-19T15:33:48;2.90;;;1.88;;
43297;SDS011;28892;55.640;37.532;2023-05-19T15:53:13;7.55;;;3.17;;
43297;SDS011;28892;55.640;37.532;2023-05-19T15:56:08;3.13;;;1.88;;
43297;SDS011;28892;55.640;37.532;2023-05-19T15:59:23;6.00;;;3.20;;
43297;SDS011;28892;55.640;37.532;2023-05-19T16:02:16;4.68;;;2.00;;
43297;SDS011;28892;55.640;37.532;2023-05-19T16:05:14;8.00;;;2.05;;
43297;SDS011;28892;55.640;37.532;2023-05-19T16:15:40;7.47;;;2.00;;
43297;SDS011;28892;55.640;37.532;2023-05-19T16:29:14;3.88;;;2.58;;
43297;SDS011;28892;55.640;37.532;2023-05-19T16:31:55;6.13;;;5.30;;
43297;SDS011;28892;55.640;37.532;2023-05-19T16:34:52;8.18;;;4.30;;
43297;SDS011;28892;55.640;37.532;2023-05-19T16:37:23;7.00;;;3.58;;
43297;SDS011;28892;55.640;37.532;2023-05-19T16:39:59;4.88;;;2.85;;
43297;SDS011;28892;55.640;37.532;2023-05-19T16:47:02;7.80;;;5.45;;
43297;SDS011;28892;55.640;37.532;2023-05-19T16:49:33;7.53;;;4.22;;
43297;SDS011;28892;55.640;37.532;2023-05-19T16:52:45;10.23;;;3.85;;
43297;SDS011;28892;55.640;37.532;2023-05-19T16:59:52;6.45;;;3.20;;
43297;SDS011;28892;55.640;37.532;2023-05-19T17:02:37;3.55;;;2.47;;
43297;SDS011;28892;55.640;37.532;2023-05-19T17:09:00;4.05;;;2.00;;
43297;SDS011;28892;55.640;37.532;2023-05-19T17:11:32;3.58;;;1.92;;
43297;SDS011;28892;55.640;37.532;2023-05-19T17:13:58;5.63;;;1.65;;
43297;SDS011;28892;55.640;37.532;2023-05-19T17:17:13;4.45;;;1.92;;
43297;SDS011;28892;55.640;37.532;2023-05-19T17:20:10;4.32;;;1.42;;
43297;SDS011;28892;55.640;37.532;2023-05-19T17:22:40;5.88;;;2.42;;
43297;SDS011;28892;55.640;37.532;2023-05-19T17:28:54;6.03;;;1.63;;
43297;SDS011;28892;55.640;37.532;2023-05-19T17:32:08;6.88;;;2.00;;
43297;SDS011;28892;55.640;37.532;2023-05-19T17:34:39;3.60;;;1.48;;
43297;SDS011;28892;55.640;37.532;2023-05-19T17:38:32;4.63;;;2.03;;
43297;SDS011;28892;55.640;37.532;2023-05-19T17:48:38;5.10;;;1.80;;
43297;SDS011;28892;55.640;37.532;2023-05-19T18:44:39;2.50;;;1.70;;
43297;SDS011;28892;55.640;37.532;2023-05-19T18:47:45;6.60;;;1.70;;
43297;SDS011;28892;55.640;37.532;2023-05-19T18:50:36;2.60;;;1.40;;
43297;SDS011;28892;55.640;37.532;2023-05-19T18:53:35;3.67;;;1.88;;
43297;SDS011;28892;55.640;37.532;2023-05-19T19:09:02;4.38;;;1.40;;
43297;SDS011;28892;55.640;37.532;2023-05-19T19:14:55;5.28;;;1.90;;
43297;SDS011;28892;55.640;37.532;2023-05-19T19:22:15;2.08;;;1.50;;
43297;SDS011;28892;55.640;37.532;2023-05-19T19:51:57;3.95;;;1.40;;
43297;SDS011;28892;55.640;37.532;2023-05-19T19:56:13;3.00;;;1.30;;
43297;SDS011;28892;55.640;37.532;2023-05-19T20:11:43;4.00;;;1.60;;
43297;SDS011;28892;55.640;37.532;2023-05-19T20:14:29;1.58;;;1.35;;
43297;SDS011;28892;55.640;37.532;2023-05-19T20:30:33;3.53;;;1.40;;
43297;SDS011;28892;55.640;37.532;2023-05-19T21:25:14;2.55;;;1.40;;
43297;SDS011;28892;55.640;37.532;2023-05-19T21:45:22;2.30;;;1.27;;
43297;SDS011;28892;55.640;37.532;2023-05-19T21:57:20;2.75;;;2.10;;
43297;SDS011;28892;55.640;37.532;2023-05-19T22:23:21;3.55;;;1.58;;
43297;SDS011;28892;55.640;37.532;2023-05-19T22:29:18;3.03;;;1.50;;
43297;SDS011;28892;55.640;37.532;2023-05-19T22:31:44;2.17;;;1.73;;
43297;SDS011;28892;55.640;37.532;2023-05-19T22:34:10;2.78;;;1.60;;
43297;SDS011;28892;55.640;37.532;2023-05-19T22:36:38;1.77;;;1.42;;
43297;SDS011;28892;55.640;37.532;2023-05-19T22:42:29;3.55;;;1.60;;
43297;SDS011;28892;55.640;37.532;2023-05-19T22:44:57;3.83;;;1.42;;
43297;SDS011;28892;55.640;37.532;2023-05-19T22:47:23;1.77;;;1.35;;
43297;SDS011;28892;55.640;37.532;2023-05-19T22:49:49;4.20;;;1.80;;
43297;SDS011;28892;55.640;37.532;2023-05-19T22:52:15;1.60;;;1.40;;
43297;SDS011;28892;55.640;37.532;2023-05-19T22:55:02;3.13;;;1.52;;
43297;SDS011;28892;55.640;37.532;2023-05-19T22:57:33;1.83;;;1.48;;
43297;SDS011;28892;55.640;37.532;2023-05-19T23:00:02;3.53;;;1.40;;
43297;SDS011;28892;55.640;37.532;2023-05-19T23:02:31;4.72;;;1.30;;
43297;SDS011;28892;55.640;37.532;2023-05-19T23:05:00;2.25;;;1.30;;
43297;SDS011;28892;55.640;37.532;2023-05-19T23:07:26;2.75;;;1.55;;
43297;SDS011;28892;55.640;37.532;2023-05-19T23:09:52;3.15;;;1.75;;
43297;SDS011;28892;55.640;37.532;2023-05-19T23:12:18;2.85;;;1.30;;
43297;SDS011;28892;55.640;37.532;2023-05-19T23:14:44;3.90;;;1.30;;
43297;SDS011;28892;55.640;37.532;2023-05-19T23:17:10;3.10;;;1.20;;
43297;SDS011;28892;55.640;37.532;2023-05-19T23:19:36;2.45;;;1.20;;
43297;SDS011;28892;55.640;37.532;2023-05-19T23:22:05;3.15;;;1.40;;
43297;SDS011;28892;55.640;37.532;2023-05-19T23:24:31;2.58;;;1.42;;
43297;SDS011;28892;55.640;37.532;2023-05-19T23:26:57;3.97;;;1.52;;
43297;SDS011;28892;55.640;37.532;2023-05-19T23:29:23;1.65;;;1.20;;
43297;SDS011;28892;55.640;37.532;2023-05-19T23:31:49;5.18;;;1.27;;
43297;SDS011;28892;55.640;37.532;2023-05-19T23:34:15;2.88;;;1.45;;
43297;SDS011;28892;55.640;37.532;2023-05-19T23:36:41;4.22;;;1.30;;
43297;SDS011;28892;55.640;37.532;2023-05-19T23:39:07;3.17;;;1.40;;
43297;SDS011;28892;55.640;37.532;2023-05-19T23:41:33;1.77;;;1.20;;
43297;SDS011;28892;55.640;37.532;2023-05-19T23:44:06;1.48;;;1.38;;
43297;SDS011;28892;55.640;37.532;2023-05-19T23:46:32;2.42;;;1.30;;
43297;SDS011;28892;55.640;37.532;2023-05-19T23:48:58;2.70;;;1.50;;
43297;SDS011;28892;55.640;37.532;2023-05-19T23:51:24;1.67;;;1.20;;
43297;SDS011;28892;55.640;37.532;2023-05-19T23:53:52;1.10;;;1.10;;
43297;SDS011;28892;55.640;37.532;2023-05-19T23:56:20;2.35;;;1.40;;
43297;SDS011;28892;55.640;37.532;2023-05-19T23:59:07;1.65;;;1.20;;
